• Join FlightAware (Why Join?)
  • Login
  • US Flag 
11:09PM EST


 

Airport Tracker/Info


-or-


 

Live Flight TrackerFlight Track Log ✈ N629SA ✈ 06-May-2013 ✈ KAPF - KSRQ

Flight Track Log - Related Links

Times and Time Zones

All times are in EDT time to prevent confusion due to time zone crossing. See the N629SA flight status page for this flight to view local times or setup timezone preferences in your user account.

Time Position Orientation Groundspeed Altitude Reporting Facility
EDT Latitude Longitude Course Direction KTS MPH feet Rate Location/Type
09:22PM 26.2775 -81.8531 331° Northwest  Level Estimated
09:23PM 26.3026 -81.8687 331° Northwest  Level Estimated
09:24PM 26.3276 -81.8842 331° Northwest  Level Estimated
09:25PM 26.3526 -81.8997 331° Northwest  Level Estimated
09:26PM 26.3776 -81.9153 331° Northwest  Level Estimated
09:27PM 26.4026 -81.9308 331° Northwest  Level Estimated
09:28PM 26.4276 -81.9464 331° Northwest  Level Estimated
09:29PM 26.4526 -81.9619 331° Northwest  Level Estimated
09:30PM 26.4776 -81.9775 331° Northwest  Level Estimated
09:31PM 26.5026 -81.9931 331° Northwest  Level Estimated
09:32PM 26.5277 -82.0086 331° Northwest  Level Estimated
09:33PM 26.5527 -82.0242 331° Northwest  Level Estimated
09:34PM 26.5777 -82.0398 331° Northwest  Level Estimated
09:35PM 26.6026 -82.0554 331° Northwest  Level Estimated
09:36PM 26.6276 -82.0710 331° Northwest  Level Estimated
09:37PM 26.6526 -82.0866 331° Northwest  Level Estimated
09:38PM 26.6776 -82.1023 331° Northwest  Level Estimated
09:39PM 26.7026 -82.1179 331° Northwest  Level Estimated
09:40PM 26.7276 -82.1335 331° Northwest  Level Estimated
09:41PM 26.7526 -82.1492 331° Northwest  Level Estimated
09:42PM 26.7776 -82.1648 331° Northwest  Level Estimated
09:42PM 26.9333 -82.2833 331° Northwest 136 157 4,000  Level Tampa TRACON
09:43PM 26.8025 -82.1805 331° Northwest  Level Estimated
09:43PM 26.9667 -82.3000 336° Northwest 135 155 4,000  Level Tampa TRACON
09:44PM 26.8275 -82.1961 331° Northwest  Level Estimated
09:44PM 27.0000 -82.3167 336° Northwest 139 160 4,100  Level Tampa TRACON
09:45PM 26.8525 -82.2118 331° Northwest  Level Estimated
09:45PM 27.0333 -82.3500 318° Northwest 137 158 4,000  Level Tampa TRACON
09:46PM 26.8775 -82.2275 331° Northwest  Level Estimated
09:46PM 27.0833 -82.3500 360° North 145 167 4,000  Level Tampa TRACON
09:47PM 26.9025 -82.2432 331° Northwest  Level Estimated
09:47PM 27.1167 -82.3500 360° North 143 165 4,000  Level Tampa TRACON
09:49PM 27.1833 -82.3500 360° North 134 154 3,500 -360 Descending Tampa TRACON
09:50PM 27.2333 -82.3667 343° North 128 147 3,000 -780 Descending Tampa TRACON
09:51PM 27.2500 -82.4000 299° West 133 153 1,900 -600 Descending Tampa TRACON
09:52PM 27.2833 -82.4167 336° Northwest 120 138 1,800  Descending Tampa TRACON
09:53PM 27.3000 -82.4500 299° West 102 117 1,900 60 Climbing Tampa TRACON
09:56PM 27.3527 -82.5076 316° Northwest  Level Estimated
10:03PM 27.3954 -82.5544 316° Northwest  Level Estimated
10:04PM 27.3954 -82.5544 13° North  Level Estimated
10:05PM 27.3954 -82.5544 13° North  Level Estimated
10:06PM 27.3954 -82.5544 13° North  Level Estimated
10:07PM 27.3954 -82.5544 13° North  Level Estimated
10:08PM 27.3954 -82.5544 13° North  Level Estimated
10:09PM 27.3954 -82.5544 13° North  Level Estimated
10:10PM 27.3954 -82.5544 13° North  Level Estimated
10:11PM 27.3954 -82.5544 13° North  Level Estimated